createdAt,value
2023-04-26T00:00:08.920Z,0.10
2023-04-26T00:02:38.656Z,0.07
2023-04-26T00:05:09.570Z,0.30
2023-04-26T00:07:39.231Z,0.00
2023-04-26T00:10:08.626Z,0.20
2023-04-26T00:12:37.096Z,0.00
2023-04-26T00:15:05.831Z,0.00
2023-04-26T00:17:34.177Z,0.10
2023-04-26T00:20:04.368Z,0.10
2023-04-26T00:22:32.665Z,0.13
2023-04-26T00:25:00.792Z,0.10
2023-04-26T00:27:28.998Z,0.10
2023-04-26T00:29:57.169Z,0.10
2023-04-26T00:32:25.412Z,0.00
2023-04-26T00:34:53.678Z,0.00
2023-04-26T00:37:23.439Z,0.00
2023-04-26T00:39:51.595Z,0.10
2023-04-26T00:42:20.687Z,0.00
2023-04-26T00:44:50.409Z,0.10
2023-04-26T00:47:18.711Z,0.10
2023-04-26T00:49:47.022Z,0.10
2023-04-26T00:52:15.515Z,0.10
2023-04-26T00:54:45.239Z,0.10
2023-04-26T00:57:13.902Z,0.10
2023-04-26T00:59:42.402Z,0.10
2023-04-26T01:02:10.673Z,0.07
2023-04-26T01:04:39.895Z,0.10
2023-04-26T01:07:08.330Z,0.10
2023-04-26T01:09:36.471Z,0.10
2023-04-26T01:12:07.489Z,0.10
2023-04-26T01:14:37.167Z,0.07
2023-04-26T01:17:06.310Z,0.10
2023-04-26T01:19:37.531Z,0.10
2023-04-26T01:22:05.748Z,0.10
2023-04-26T01:24:36.852Z,0.00
2023-04-26T01:27:05.236Z,0.00
2023-04-26T01:29:33.528Z,0.10
2023-04-26T01:32:01.699Z,0.10
2023-04-26T01:34:29.973Z,0.10
2023-04-26T01:36:58.174Z,0.00
2023-04-26T01:39:26.376Z,0.00
2023-04-26T01:41:56.224Z,0.20
2023-04-26T01:44:24.367Z,0.10
2023-04-26T01:46:52.502Z,0.10
2023-04-26T01:49:20.826Z,0.20
2023-04-26T01:51:48.954Z,0.23
2023-04-26T01:54:17.146Z,0.30
2023-04-26T01:56:45.276Z,0.10
2023-04-26T01:59:15.194Z,0.20
2023-04-26T02:01:43.626Z,0.10
2023-04-26T02:04:11.921Z,0.17
2023-04-26T02:06:41.779Z,0.10
2023-04-26T02:09:10.253Z,0.10
2023-04-26T02:11:38.377Z,0.30
2023-04-26T02:14:06.550Z,0.00
2023-04-26T02:16:36.558Z,0.10
2023-04-26T02:19:05.410Z,0.10
2023-04-26T02:21:33.598Z,0.10
2023-04-26T02:24:01.713Z,0.10
2023-04-26T02:26:29.911Z,0.10
2023-04-26T02:28:58.036Z,0.10
2023-04-26T02:31:26.209Z,0.13
2023-04-26T02:33:56.475Z,0.10
2023-04-26T02:36:24.631Z,0.10
2023-04-26T02:38:53.158Z,0.07
2023-04-26T02:41:21.984Z,0.20
2023-04-26T02:43:50.112Z,0.23
2023-04-26T02:46:18.375Z,0.20
2023-04-26T02:48:46.517Z,0.20
2023-04-26T02:51:16.180Z,0.17
2023-04-26T02:53:44.292Z,0.20
2023-04-26T02:56:12.385Z,0.30
2023-04-26T02:58:40.501Z,0.30
2023-04-26T03:01:08.838Z,0.20
2023-04-26T03:03:37.607Z,0.40
2023-04-26T03:06:06.522Z,0.27
2023-04-26T03:08:36.792Z,0.10
2023-04-26T03:11:04.979Z,0.30
2023-04-26T03:13:33.102Z,0.20
2023-04-26T03:16:01.321Z,0.20
2023-04-26T03:18:29.599Z,0.20
2023-04-26T03:20:57.765Z,0.30
2023-04-26T03:23:26.023Z,0.20
2023-04-26T03:25:55.769Z,0.10
2023-04-26T03:28:23.929Z,0.20
2023-04-26T03:30:52.121Z,0.10
2023-04-26T03:33:20.261Z,0.50
2023-04-26T03:35:48.398Z,0.20
2023-04-26T03:38:16.606Z,0.40
2023-04-26T03:40:44.830Z,0.53
2023-04-26T03:43:14.402Z,0.20
2023-04-26T03:45:42.668Z,0.13
2023-04-26T03:48:10.905Z,0.10
2023-04-26T03:50:39.645Z,0.20
2023-04-26T03:53:07.874Z,0.20
2023-04-26T03:55:36.099Z,0.50
2023-04-26T03:58:07.912Z,0.20
2023-04-26T04:00:38.825Z,0.20
2023-04-26T04:03:07.717Z,0.20
2023-04-26T04:05:36.333Z,0.13
2023-04-26T04:08:04.559Z,0.20
2023-04-26T04:10:32.758Z,0.27
2023-04-26T04:13:00.895Z,0.20
2023-04-26T04:15:29.085Z,0.30
2023-04-26T04:17:58.685Z,0.73
2023-04-26T04:20:26.939Z,0.20
2023-04-26T04:22:55.425Z,0.30
2023-04-26T04:25:24.955Z,0.20
2023-04-26T04:27:53.501Z,0.20
2023-04-26T04:30:21.711Z,0.30
2023-04-26T04:32:50.312Z,0.30
2023-04-26T04:35:19.998Z,0.20
2023-04-26T04:37:50.232Z,0.30
2023-04-26T04:40:18.554Z,0.30
2023-04-26T04:42:47.216Z,0.40
2023-04-26T04:45:16.112Z,0.37
2023-04-26T04:47:45.463Z,0.23
2023-04-26T04:50:14.586Z,0.30
2023-04-26T04:52:44.474Z,0.30
2023-04-26T04:55:12.743Z,0.30
2023-04-26T04:57:43.127Z,0.30
2023-04-26T05:00:13.201Z,0.40
2023-04-26T05:02:41.567Z,0.30
2023-04-26T05:05:10.818Z,0.30
2023-04-26T05:07:39.227Z,0.30
2023-04-26T05:10:09.780Z,0.30
2023-04-26T05:12:38.266Z,0.30
2023-04-26T05:15:07.599Z,0.50
2023-04-26T05:17:35.932Z,0.50
2023-04-26T05:20:07.567Z,0.40
2023-04-26T05:22:37.077Z,0.40
2023-04-26T05:25:06.010Z,0.40
2023-04-26T05:27:36.877Z,0.40
2023-04-26T05:30:05.990Z,0.50
2023-04-26T05:32:34.189Z,0.57
2023-04-26T05:35:02.835Z,0.70
2023-04-26T05:37:31.811Z,0.80
2023-04-26T05:40:00.372Z,0.90
2023-04-26T05:42:28.592Z,0.43
2023-04-26T05:45:00.216Z,0.50
2023-04-26T05:47:28.546Z,0.80
2023-04-26T05:49:56.723Z,0.53
2023-04-26T05:52:24.869Z,0.47
2023-04-26T05:54:53.051Z,0.47
2023-04-26T05:57:21.261Z,0.40
2023-04-26T05:59:49.471Z,0.67
2023-04-26T06:02:19.133Z,0.60
2023-04-26T06:04:47.581Z,0.60
2023-04-26T06:07:16.125Z,0.70
2023-04-26T06:09:44.705Z,0.83
2023-04-26T06:12:12.888Z,0.60
2023-04-26T06:14:41.136Z,0.50
2023-04-26T06:17:09.703Z,0.70
2023-04-26T06:19:39.369Z,0.73
2023-04-26T06:22:07.519Z,0.50
2023-04-26T06:24:35.713Z,0.40
2023-04-26T06:27:03.909Z,0.70
2023-04-26T06:29:34.454Z,0.50
2023-04-26T06:32:02.715Z,0.60
2023-04-26T06:34:31.281Z,0.43
2023-04-26T06:37:01.083Z,0.50
2023-04-26T06:39:29.265Z,0.30
2023-04-26T06:41:57.534Z,0.53
2023-04-26T06:44:25.828Z,0.60
2023-04-26T06:46:55.678Z,0.50
2023-04-26T06:49:24.139Z,0.40
2023-04-26T06:51:53.298Z,0.40
2023-04-26T06:54:22.942Z,0.40
2023-04-26T06:56:51.196Z,0.30
2023-04-26T06:59:19.379Z,0.30
2023-04-26T07:01:47.741Z,0.50
2023-04-26T07:04:18.458Z,0.43
2023-04-26T07:06:46.986Z,0.30
2023-04-26T07:09:15.273Z,0.40
2023-04-26T07:11:47.626Z,0.43
2023-04-26T07:14:15.843Z,0.30
2023-04-26T07:16:44.590Z,0.30
2023-04-26T07:19:13.109Z,0.37
2023-04-26T07:21:41.587Z,0.27
2023-04-26T07:24:09.956Z,0.30
2023-04-26T07:26:38.311Z,0.30
2023-04-26T07:29:08.008Z,0.30
2023-04-26T07:31:37.094Z,0.30
2023-04-26T07:34:05.243Z,0.20
2023-04-26T07:36:33.445Z,0.20
2023-04-26T07:39:01.671Z,0.20
2023-04-26T07:41:29.853Z,0.20
2023-04-26T07:43:59.288Z,0.27
2023-04-26T07:46:28.900Z,0.30
2023-04-26T07:48:57.117Z,0.50
2023-04-26T07:51:25.360Z,0.30
2023-04-26T07:53:53.901Z,0.47
2023-04-26T07:56:24.139Z,0.30
2023-04-26T07:58:52.418Z,0.30
2023-04-26T08:01:20.640Z,0.20
2023-04-26T08:03:50.516Z,0.40
2023-04-26T08:06:19.198Z,0.23
2023-04-26T08:08:50.766Z,0.43
2023-04-26T08:11:19.303Z,0.30
2023-04-26T08:13:47.596Z,0.20
2023-04-26T08:16:16.866Z,0.50
2023-04-26T08:18:46.930Z,0.20
2023-04-26T08:21:16.916Z,0.30
2023-04-26T08:23:45.202Z,0.20
2023-04-26T08:26:13.625Z,0.30
2023-04-26T08:28:41.788Z,0.27
2023-04-26T08:31:10.395Z,0.10
2023-04-26T08:33:38.601Z,0.13
2023-04-26T08:36:07.549Z,0.30
2023-04-26T08:38:37.170Z,0.20
2023-04-26T08:41:06.409Z,0.10
2023-04-26T08:43:37.854Z,0.10
2023-04-26T08:46:12.574Z,0.23
2023-04-26T08:48:42.056Z,0.00
2023-04-26T08:51:14.294Z,0.20
2023-04-26T08:53:44.627Z,0.20
2023-04-26T08:56:14.645Z,0.20
2023-04-26T08:58:43.360Z,0.20
2023-04-26T09:03:43.791Z,0.13
2023-04-26T09:06:13.200Z,0.10
2023-04-26T09:08:44.667Z,0.10
2023-04-26T09:11:13.057Z,0.10
2023-04-26T09:13:41.276Z,0.20
2023-04-26T09:16:10.100Z,0.27
2023-04-26T09:18:51.594Z,0.20
2023-04-26T09:21:20.393Z,0.10
2023-04-26T09:24:01.903Z,0.10
2023-04-26T09:26:30.162Z,0.20
2023-04-26T09:29:13.947Z,0.30
2023-04-26T09:31:43.696Z,0.20
2023-04-26T09:34:12.645Z,0.20
2023-04-26T09:36:51.527Z,0.50
2023-04-26T09:39:37.459Z,0.30
2023-04-26T09:42:06.326Z,0.20
2023-04-26T09:44:34.916Z,0.20
2023-04-26T09:47:04.901Z,0.20
2023-04-26T09:49:34.481Z,0.17
2023-04-26T09:52:08.337Z,0.20
2023-04-26T09:54:45.468Z,0.13
2023-04-26T09:57:15.086Z,0.47
2023-04-26T09:59:44.800Z,0.40
2023-04-26T10:02:20.729Z,0.20
2023-04-26T10:04:50.390Z,0.30
2023-04-26T10:07:20.037Z,0.30
2023-04-26T10:09:50.653Z,0.20
2023-04-26T10:12:20.185Z,0.17
2023-04-26T10:14:48.749Z,0.20
2023-04-26T10:17:17.424Z,0.30
2023-04-26T10:19:47.177Z,0.20
2023-04-26T10:22:20.748Z,0.20
2023-04-26T10:24:51.711Z,0.10
2023-04-26T10:27:50.283Z,0.20
2023-04-26T10:30:19.409Z,0.20
2023-04-26T10:33:17.770Z,0.20
2023-04-26T10:36:07.031Z,0.20
2023-04-26T10:38:35.852Z,0.20
2023-04-26T10:41:37.530Z,0.10
2023-04-26T10:44:41.227Z,0.10
2023-04-26T10:47:22.043Z,0.10
2023-04-26T10:49:50.348Z,0.10
2023-04-26T10:52:20.502Z,0.10
2023-04-26T10:54:50.808Z,0.07
2023-04-26T10:57:21.670Z,0.07
2023-04-26T11:00:21.049Z,0.00
2023-04-26T11:02:57.648Z,0.00
2023-04-26T11:05:37.637Z,0.00
2023-04-26T11:08:08.994Z,0.10
2023-04-26T11:10:44.362Z,0.10
2023-04-26T11:13:14.018Z,0.10
2023-04-26T11:15:42.236Z,0.10
2023-04-26T11:18:10.539Z,0.10
2023-04-26T11:20:38.707Z,0.00
2023-04-26T11:23:09.742Z,0.10
2023-04-26T11:25:41.448Z,0.10
2023-04-26T11:28:09.661Z,0.10
2023-04-26T11:30:39.290Z,0.10
2023-04-26T11:33:07.934Z,0.17
2023-04-26T11:35:37.407Z,0.10
2023-04-26T11:38:06.781Z,0.10
2023-04-26T11:40:36.768Z,0.17
2023-04-26T11:43:06.670Z,0.20
2023-04-26T11:45:36.336Z,0.00
2023-04-26T11:48:07.529Z,0.20
2023-04-26T11:50:38.197Z,0.10
2023-04-26T11:53:08.169Z,0.10
2023-04-26T11:55:37.079Z,0.10
2023-04-26T11:58:12.690Z,0.20
2023-04-26T12:00:59.165Z,0.13
2023-04-26T12:03:33.740Z,0.17
2023-04-26T12:06:02.446Z,0.10
2023-04-26T12:08:30.849Z,0.10
2023-04-26T12:11:02.503Z,0.10
2023-04-26T12:13:32.393Z,0.10
2023-04-26T12:16:00.597Z,0.10
2023-04-26T12:18:33.842Z,0.10
2023-04-26T12:21:02.784Z,0.10
2023-04-26T12:23:39.593Z,0.10
2023-04-26T12:26:11.257Z,0.20
2023-04-26T12:28:39.759Z,0.10
2023-04-26T12:31:08.468Z,0.10
2023-04-26T12:33:38.310Z,0.20
2023-04-26T12:36:11.386Z,0.10
2023-04-26T12:38:39.632Z,0.10
2023-04-26T12:41:07.957Z,0.10
2023-04-26T12:43:36.858Z,0.10
2023-04-26T12:46:05.619Z,0.15
2023-04-26T12:48:33.826Z,0.10
2023-04-26T12:51:03.395Z,0.20
2023-04-26T12:53:31.611Z,0.10
2023-04-26T12:56:00.194Z,0.10
2023-04-26T12:58:29.262Z,0.15
2023-04-26T13:00:57.575Z,0.10
2023-04-26T13:03:25.953Z,0.10
2023-04-26T13:05:54.241Z,0.10
2023-04-26T13:08:24.503Z,0.20
2023-04-26T13:10:52.798Z,0.10
2023-04-26T13:13:26.299Z,0.10
2023-04-26T13:16:00.870Z,0.15
2023-04-26T13:18:29.191Z,0.00
2023-04-26T13:20:57.403Z,0.10
2023-04-26T13:23:27.027Z,0.13
2023-04-26T13:25:55.284Z,0.10
2023-04-26T13:28:23.581Z,0.17
2023-04-26T13:30:52.571Z,0.20
2023-04-26T13:33:21.518Z,0.20
2023-04-26T13:35:49.974Z,0.10
2023-04-26T13:38:18.499Z,0.10
2023-04-26T13:40:48.416Z,0.20
2023-04-26T13:43:16.680Z,0.20
2023-04-26T13:45:44.991Z,0.20
2023-04-26T13:48:13.502Z,0.22
2023-04-26T13:50:41.892Z,0.20
2023-04-26T13:53:10.501Z,0.20
2023-04-26T13:55:38.761Z,0.10
2023-04-26T13:58:08.418Z,0.20
2023-04-26T14:00:36.772Z,0.10
2023-04-26T14:03:05.304Z,0.10
2023-04-26T14:05:33.579Z,0.10
2023-04-26T14:08:02.289Z,0.10
2023-04-26T14:10:30.612Z,0.22
2023-04-26T14:12:58.777Z,0.20
2023-04-26T14:15:28.937Z,0.20
2023-04-26T14:17:57.157Z,0.20
2023-04-26T14:20:25.496Z,0.20
2023-04-26T14:22:53.769Z,0.20
2023-04-26T14:25:22.078Z,0.20
2023-04-26T14:27:51.855Z,0.10
2023-04-26T14:30:21.624Z,0.10
2023-04-26T14:32:51.473Z,0.10
2023-04-26T14:35:19.823Z,0.22
2023-04-26T14:37:48.172Z,0.10
2023-04-26T14:40:16.507Z,0.20
2023-04-26T14:42:46.218Z,0.20
2023-04-26T14:45:14.901Z,0.40
2023-04-26T14:47:43.193Z,0.20
2023-04-26T14:50:14.219Z,0.20
2023-04-26T14:52:42.470Z,0.10
2023-04-26T14:55:11.102Z,0.20
2023-04-26T14:57:41.987Z,0.20
2023-04-26T15:00:15.503Z,0.22
2023-04-26T15:02:44.011Z,0.10
2023-04-26T15:05:14.780Z,0.30
2023-04-26T15:07:43.245Z,0.10
2023-04-26T15:10:11.860Z,0.15
2023-04-26T15:12:40.229Z,0.20
2023-04-26T15:15:09.577Z,0.20
2023-04-26T15:17:37.992Z,0.30
2023-04-26T15:20:07.510Z,0.10
2023-04-26T15:22:38.688Z,0.30
2023-04-26T15:25:08.538Z,0.20
2023-04-26T15:27:37.266Z,0.20
2023-04-26T15:30:06.276Z,0.10
2023-04-26T15:32:34.658Z,0.20
2023-04-26T15:35:04.085Z,0.20
2023-04-26T15:37:32.360Z,0.15
2023-04-26T15:40:01.991Z,0.20
2023-04-26T15:42:30.471Z,0.20
2023-04-26T15:44:59.249Z,0.25
2023-04-26T15:47:27.544Z,0.10
2023-04-26T15:49:56.036Z,0.20
2023-04-26T15:52:24.325Z,0.10
2023-04-26T15:54:52.904Z,0.40
2023-04-26T15:57:22.674Z,0.20
2023-04-26T15:59:51.298Z,0.20
2023-04-26T16:02:19.850Z,0.20
2023-04-26T16:04:48.204Z,0.10
2023-04-26T16:07:16.894Z,0.40
2023-04-26T16:09:46.104Z,0.20
2023-04-26T16:12:14.379Z,0.40
2023-04-26T16:14:44.063Z,0.30
2023-04-26T16:17:12.432Z,0.28
2023-04-26T16:19:40.744Z,0.28
2023-04-26T16:22:09.012Z,0.30
2023-04-26T16:24:37.223Z,0.20
2023-04-26T16:27:05.911Z,0.28
2023-04-26T16:29:34.258Z,0.10
2023-04-26T16:32:04.021Z,0.15
2023-04-26T16:34:32.254Z,0.22
2023-04-26T16:37:00.459Z,0.30
2023-04-26T16:39:28.948Z,0.20
2023-04-26T16:41:57.623Z,0.20
2023-04-26T16:44:26.063Z,0.30
2023-04-26T16:46:54.450Z,0.20
2023-04-26T16:49:24.256Z,0.20
2023-04-26T16:51:56.475Z,0.20
2023-04-26T16:54:24.658Z,0.20
2023-04-26T16:56:52.927Z,0.20
2023-04-26T16:59:21.219Z,0.27
2023-04-26T17:01:49.463Z,0.23
2023-04-26T17:04:17.895Z,0.17
2023-04-26T17:06:47.597Z,0.30
2023-04-26T17:09:15.773Z,0.30
2023-04-26T17:11:44.963Z,0.40
2023-04-26T17:14:13.450Z,0.40
2023-04-26T17:16:41.853Z,0.40
2023-04-26T17:19:10.278Z,0.20
2023-04-26T17:21:38.499Z,0.30
2023-04-26T17:24:08.812Z,0.20
2023-04-26T17:26:36.981Z,0.30
2023-04-26T17:29:05.136Z,0.20
2023-04-26T17:31:33.300Z,0.30
2023-04-26T17:34:04.062Z,0.30
2023-04-26T17:36:33.099Z,0.30
2023-04-26T17:39:01.426Z,0.20
2023-04-26T17:41:31.234Z,0.30
2023-04-26T17:43:59.503Z,0.20
2023-04-26T17:46:27.813Z,0.23
2023-04-26T17:48:56.731Z,0.40
2023-04-26T17:51:24.912Z,0.30
2023-04-26T17:53:53.118Z,0.30
2023-04-26T17:56:21.385Z,0.30
2023-04-26T17:58:50.930Z,0.30
2023-04-26T18:01:20.211Z,0.20
2023-04-26T18:03:49.293Z,0.30
2023-04-26T18:06:19.458Z,0.30
2023-04-26T18:08:48.161Z,0.20
2023-04-26T18:11:16.378Z,0.30
2023-04-26T18:13:44.583Z,0.20
2023-04-26T18:16:16.912Z,0.27
2023-04-26T18:18:45.289Z,0.30
2023-04-26T18:21:13.452Z,0.20
2023-04-26T18:23:41.695Z,0.10
2023-04-26T18:26:09.950Z,0.20
2023-04-26T18:28:38.291Z,0.20
2023-04-26T18:31:08.189Z,0.27
2023-04-26T18:33:37.856Z,0.30
2023-04-26T18:36:06.503Z,0.30
2023-04-26T18:38:34.917Z,0.23
2023-04-26T18:41:03.463Z,0.50
2023-04-26T18:43:31.680Z,0.50
2023-04-26T18:46:00.114Z,0.30
2023-04-26T18:48:28.390Z,0.27
2023-04-26T18:50:58.003Z,0.30
2023-04-26T18:53:26.171Z,0.47
2023-04-26T18:55:54.488Z,0.40
2023-04-26T18:58:22.852Z,0.40
2023-04-26T19:00:51.137Z,0.30
2023-04-26T19:03:19.819Z,0.37
2023-04-26T19:05:48.308Z,0.40
2023-04-26T19:08:18.540Z,0.30
2023-04-26T19:10:46.749Z,0.50
2023-04-26T19:13:14.910Z,0.40
2023-04-26T19:15:43.196Z,0.40
2023-04-26T19:18:11.439Z,0.33
2023-04-26T19:20:40.287Z,0.60
2023-04-26T19:23:08.489Z,0.27
2023-04-26T19:25:38.090Z,0.57
2023-04-26T19:28:06.523Z,0.30
2023-04-26T19:30:34.790Z,0.70
2023-04-26T19:33:03.426Z,0.30
2023-04-26T19:35:31.611Z,0.30
2023-04-26T19:37:59.806Z,0.40
2023-04-26T19:40:28.044Z,0.60
2023-04-26T19:42:57.687Z,0.43
2023-04-26T19:45:25.906Z,0.50
2023-04-26T19:47:54.077Z,0.40
2023-04-26T19:50:22.269Z,0.50
2023-04-26T19:52:50.620Z,0.50
2023-04-26T19:55:19.139Z,0.40
2023-04-26T19:57:47.986Z,0.70
2023-04-26T20:00:17.966Z,0.80
2023-04-26T20:02:46.344Z,0.60
2023-04-26T20:05:15.048Z,1.30
2023-04-26T20:07:43.300Z,0.40
2023-04-26T20:10:11.864Z,0.53
2023-04-26T20:12:40.633Z,0.60
2023-04-26T20:15:10.278Z,0.50
2023-04-26T20:17:40.024Z,0.30
2023-04-26T20:20:10.289Z,0.77
2023-04-26T20:22:38.717Z,0.40
2023-04-26T20:25:07.984Z,0.43
2023-04-26T20:27:36.402Z,0.53
2023-04-26T20:30:05.009Z,0.50
2023-04-26T20:32:33.443Z,0.60
2023-04-26T20:35:03.209Z,2.20
2023-04-26T20:37:31.582Z,1.10
2023-04-26T20:39:59.768Z,0.90
2023-04-26T20:42:28.726Z,0.60
2023-04-26T20:44:57.955Z,0.60
2023-04-26T20:47:27.477Z,0.40
2023-04-26T20:49:55.737Z,0.47
2023-04-26T20:52:25.742Z,0.40
2023-04-26T20:54:53.951Z,0.57
2023-04-26T20:57:22.188Z,0.90
2023-04-26T20:59:50.377Z,0.57
2023-04-26T21:02:18.756Z,0.53
2023-04-26T21:04:47.181Z,0.80
2023-04-26T21:07:16.061Z,0.43
2023-04-26T21:09:47.258Z,0.77
2023-04-26T21:12:15.738Z,0.50
2023-04-26T21:14:46.025Z,0.43
2023-04-26T21:17:14.257Z,0.87
2023-04-26T21:19:42.368Z,0.60
2023-04-26T21:22:11.879Z,1.10
2023-04-26T21:24:40.830Z,0.40
2023-04-26T21:27:10.882Z,0.50
2023-04-26T21:29:39.329Z,0.83
2023-04-26T21:32:07.588Z,0.43
2023-04-26T21:34:36.662Z,0.40
2023-04-26T21:37:05.395Z,0.60
2023-04-26T21:39:33.726Z,0.60
2023-04-26T21:42:03.764Z,0.67
2023-04-26T21:44:33.599Z,0.47
2023-04-26T21:47:01.996Z,1.47
2023-04-26T21:49:30.389Z,0.50
2023-04-26T21:51:58.544Z,0.50
2023-04-26T21:54:26.716Z,0.73
2023-04-26T21:56:54.797Z,0.60
2023-04-26T21:59:23.027Z,0.80
2023-04-26T22:01:52.676Z,0.80
2023-04-26T22:04:21.034Z,0.80
2023-04-26T22:06:49.336Z,0.90
2023-04-26T22:09:17.598Z,1.00
2023-04-26T22:11:45.755Z,1.17
2023-04-26T22:14:14.262Z,1.00
2023-04-26T22:16:42.712Z,1.20
2023-04-26T22:19:12.535Z,1.53
2023-04-26T22:21:40.954Z,1.13
2023-04-26T22:24:10.501Z,1.40
2023-04-26T22:26:38.647Z,1.17
2023-04-26T22:29:07.178Z,0.97
2023-04-26T22:31:35.359Z,0.77
2023-04-26T22:34:03.613Z,1.10
2023-04-26T22:36:33.686Z,1.17
2023-04-26T22:39:01.976Z,0.70
2023-04-26T22:41:30.189Z,0.83
2023-04-26T22:43:58.407Z,0.90
2023-04-26T22:46:26.753Z,0.60
2023-04-26T22:48:55.069Z,0.77
2023-04-26T22:51:23.361Z,0.63
2023-04-26T22:53:52.975Z,0.50
2023-04-26T22:56:21.134Z,0.93
2023-04-26T22:58:49.238Z,0.50
2023-04-26T23:01:17.497Z,0.60
2023-04-26T23:03:45.907Z,0.47
2023-04-26T23:06:14.056Z,0.60
2023-04-26T23:08:42.109Z,0.50
2023-04-26T23:11:11.807Z,0.60
2023-04-26T23:13:39.901Z,0.70
2023-04-26T23:16:08.932Z,1.20
2023-04-26T23:18:37.328Z,1.20
2023-04-26T23:21:05.893Z,1.27
2023-04-26T23:23:34.039Z,1.27
2023-04-26T23:26:02.210Z,0.73
2023-04-26T23:28:31.864Z,0.97
2023-04-26T23:31:00.027Z,1.10
2023-04-26T23:33:28.187Z,1.00
2023-04-26T23:35:56.942Z,0.70
2023-04-26T23:38:25.102Z,0.60
2023-04-26T23:40:53.170Z,0.90
2023-04-26T23:43:21.369Z,0.60
2023-04-26T23:45:51.371Z,0.70
2023-04-26T23:48:19.596Z,0.93
2023-04-26T23:50:47.727Z,0.57
2023-04-26T23:53:15.897Z,0.50
2023-04-26T23:55:44.127Z,1.00
2023-04-26T23:58:12.321Z,0.80
